Time;durP1;ratioP1;P1;durP2;ratioP2;P2;SDS_P1;SDS_P2;PMS_P1;PMS_P2;Temp;Humidity;BMP_temperature;BMP_pressure;BME280_temperature;BME280_humidity;BME280_pressure;Samples;Min_cycle;Max_cycle;Signal;HPM_P1;HPM_P2
2023/07/30 00:01:21;;;;;;;0.67;0.67;;;18.30;99.90;;;;;;5053776;28;20631;-70
2023/07/30 00:03:46;;;;;;;0.60;0.60;;;18.30;99.90;;;;;;5053931;28;20507;-70
2023/07/30 00:06:12;;;;;;;0.50;0.50;;;18.30;99.90;;;;;;5053826;28;20293;-70
2023/07/30 00:08:38;;;;;;;1.17;0.90;;;18.10;99.90;;;;;;5053904;28;20179;-70
2023/07/30 00:11:03;;;;;;;0.77;0.77;;;18.20;99.90;;;;;;5053725;28;20638;-69
2023/07/30 00:13:29;;;;;;;1.27;1.17;;;18.30;99.90;;;;;;5053896;28;20165;-70
2023/07/30 00:15:54;;;;;;;0.60;0.60;;;18.30;99.90;;;;;;5053606;28;20175;-69
2023/07/30 00:18:20;;;;;;;0.50;0.50;;;18.40;99.90;;;;;;5053712;28;20530;-69
2023/07/30 00:20:46;;;;;;;1.00;0.90;;;18.30;99.90;;;;;;5053434;28;20267;-70
2023/07/30 00:23:11;;;;;;;6.20;0.80;;;18.40;99.90;;;;;;5053667;28;20184;-70
2023/07/30 00:25:37;;;;;;;1.20;1.20;;;18.40;99.90;;;;;;5053661;28;20679;-69
2023/07/30 00:28:03;;;;;;;0.70;0.70;;;18.40;99.90;;;;;;5053622;28;20205;-70
2023/07/30 00:30:28;;;;;;;1.23;0.90;;;18.40;99.90;;;;;;5053283;28;20184;-70
2023/07/30 00:32:54;;;;;;;2.10;0.93;;;18.30;99.90;;;;;;5053355;28;20667;-69
2023/07/30 00:35:20;;;;;;;0.53;0.53;;;18.40;99.90;;;;;;5053477;28;20169;-70
2023/07/30 00:37:45;;;;;;;0.67;0.67;;;18.40;99.90;;;;;;5053508;28;20643;-70
2023/07/30 00:40:11;;;;;;;0.70;0.60;;;18.40;99.90;;;;;;5053336;28;20189;-70
2023/07/30 00:42:37;;;;;;;0.47;0.47;;;18.30;99.90;;;;;;5053176;28;20213;-69
2023/07/30 00:45:04;;;;;;;0.67;0.67;;;18.20;99.90;;;;;;5053361;28;20800;-69
2023/07/30 00:47:30;;;;;;;1.00;0.80;;;18.30;99.90;;;;;;5053298;28;20514;-70
2023/07/30 00:49:55;;;;;;;0.97;0.73;;;18.30;99.90;;;;;;5053133;28;20624;-69
2023/07/30 00:52:23;;;;;;;2.20;0.70;;;18.30;99.90;;;;;;5052961;28;20414;-69
2023/07/30 00:54:49;;;;;;;0.43;0.43;;;18.30;99.90;;;;;;5053003;28;20181;-69
2023/07/30 00:57:17;;;;;;;0.60;0.60;;;18.20;99.90;;;;;;5053289;28;20491;-69
2023/07/30 00:59:43;;;;;;;0.73;0.73;;;18.30;99.90;;;;;;5053014;28;20437;-70
2023/07/30 01:02:09;;;;;;;2.10;0.83;;;18.30;99.90;;;;;;5052840;28;20417;-70
2023/07/30 01:04:37;;;;;;;0.67;0.60;;;18.30;99.90;;;;;;5053106;28;20255;-69
2023/07/30 01:07:03;;;;;;;0.50;0.50;;;18.30;99.90;;;;;;5053149;28;20202;-69
2023/07/30 01:09:29;;;;;;;1.50;1.40;;;18.30;99.90;;;;;;5053015;28;20491;-70
2023/07/30 01:11:55;;;;;;;0.40;0.40;;;18.30;99.90;;;;;;5052784;28;20501;-68
2023/07/30 01:14:22;;;;;;;1.50;1.00;;;18.20;99.90;;;;;;5053178;28;20256;-69
2023/07/30 01:16:48;;;;;;;1.40;1.40;;;18.30;99.90;;;;;;5053161;28;20515;-69
2023/07/30 01:19:14;;;;;;;1.00;0.80;;;18.30;99.90;;;;;;5052872;28;20477;-70
2023/07/30 01:21:40;;;;;;;0.93;0.93;;;18.30;99.90;;;;;;5052944;28;20760;-70
2023/07/30 01:24:05;;;;;;;0.67;0.67;;;18.20;99.90;;;;;;5053118;28;20174;-70
2023/07/30 01:26:45;;;;;;;0.80;0.80;;;18.20;99.90;;;;;;5052960;28;20244;-70
2023/07/30 01:29:19;;;;;;;0.40;0.40;;;18.20;99.90;;;;;;5052967;28;20187;-69
2023/07/30 01:31:49;;;;;;;2.17;1.00;;;18.30;99.90;;;;;;5052804;28;20758;-69
2023/07/30 01:34:15;;;;;;;1.20;0.83;;;18.30;99.90;;;;;;5053091;28;20402;-69
2023/07/30 01:36:42;;;;;;;0.40;0.40;;;18.40;99.90;;;;;;5052738;28;20426;-69
2023/07/30 01:39:10;;;;;;;0.70;0.70;;;18.40;99.90;;;;;;5052708;28;20433;-69
2023/07/30 01:41:36;;;;;;;29.37;1.57;;;18.40;99.90;;;;;;5052724;28;20448;-68
2023/07/30 01:44:02;;;;;;;0.50;0.50;;;18.40;99.90;;;;;;5052918;28;20443;-70
2023/07/30 01:46:28;;;;;;;0.70;0.70;;;18.40;99.90;;;;;;5051350;28;20209;-69
2023/07/30 01:48:53;;;;;;;0.63;0.63;;;18.40;99.90;;;;;;5052614;28;20186;-70
2023/07/30 01:51:19;;;;;;;0.40;0.40;;;18.40;99.90;;;;;;5052434;28;20222;-69
2023/07/30 01:53:45;;;;;;;0.37;0.37;;;18.40;99.90;;;;;;5052839;28;20167;-70
2023/07/30 01:56:10;;;;;;;0.70;0.70;;;18.40;99.90;;;;;;5052537;28;20256;-70
2023/07/30 01:58:36;;;;;;;0.30;0.30;;;18.20;99.90;;;;;;5052506;28;20660;-70
2023/07/30 02:01:01;;;;;;;1.13;1.03;;;18.30;99.90;;;;;;5052552;28;20652;-70
2023/07/30 02:03:27;;;;;;;0.40;0.40;;;18.40;99.90;;;;;;5052626;28;20167;-70
2023/07/30 02:05:53;;;;;;;0.80;0.80;;;18.40;99.90;;;;;;5054502;28;20201;-69
2023/07/30 02:08:18;;;;;;;1.37;0.97;;;18.50;99.90;;;;;;5056073;28;20172;-70
2023/07/30 02:10:44;;;;;;;0.73;0.70;;;18.50;99.90;;;;;;5056186;28;20246;-70
2023/07/30 02:13:09;;;;;;;0.40;0.40;;;18.50;99.90;;;;;;5056047;28;20219;-69
2023/07/30 02:15:40;;;;;;;0.80;0.70;;;18.50;99.90;;;;;;5056130;28;20217;-69
2023/07/30 02:18:06;;;;;;;0.87;0.87;;;18.50;99.90;;;;;;5056123;28;20175;-70
2023/07/30 02:20:31;;;;;;;0.60;0.60;;;18.50;99.90;;;;;;5055904;28;20523;-70
2023/07/30 02:22:57;;;;;;;1.37;1.30;;;18.60;99.90;;;;;;5055634;28;20176;-69
2023/07/30 02:25:22;;;;;;;0.40;0.40;;;18.50;99.90;;;;;;5055818;28;20201;-70
2023/07/30 02:27:48;;;;;;;1.33;1.23;;;18.50;99.90;;;;;;5055891;28;20250;-70
2023/07/30 02:30:14;;;;;;;0.60;0.60;;;18.50;99.90;;;;;;5055728;28;20281;-70
2023/07/30 02:32:41;;;;;;;1.23;1.07;;;18.50;99.90;;;;;;5055653;28;20180;-69
2023/07/30 02:35:06;;;;;;;0.87;0.87;;;18.50;99.90;;;;;;5055701;28;20170;-69
2023/07/30 02:37:32;;;;;;;0.50;0.50;;;18.50;99.90;;;;;;5055518;28;20910;-70
2023/07/30 02:39:59;;;;;;;0.60;0.60;;;18.40;99.90;;;;;;5055505;28;20189;-70
2023/07/30 02:42:25;;;;;;;1.10;1.10;;;18.40;99.90;;;;;;5055425;28;20624;-70
2023/07/30 02:44:50;;;;;;;0.90;0.83;;;18.40;99.90;;;;;;5055438;28;20407;-70
2023/07/30 02:47:16;;;;;;;0.80;0.80;;;18.40;99.90;;;;;;5055358;28;20214;-69
2023/07/30 02:49:41;;;;;;;0.77;0.77;;;18.50;99.90;;;;;;5055336;28;20248;-70
2023/07/30 02:52:07;;;;;;;2.07;1.00;;;18.40;99.90;;;;;;5055043;28;20170;-69
2023/07/30 02:54:33;;;;;;;1.33;0.90;;;18.30;99.90;;;;;;5055340;28;20201;-71
2023/07/30 02:56:58;;;;;;;1.00;0.87;;;18.40;99.90;;;;;;5055423;28;20170;-69
2023/07/30 02:59:24;;;;;;;0.60;0.60;;;18.40;99.90;;;;;;5055194;28;20268;-69
2023/07/30 03:01:49;;;;;;;0.90;0.90;;;18.40;99.90;;;;;;5055026;28;20178;-69
2023/07/30 03:04:15;;;;;;;0.40;0.40;;;18.40;99.90;;;;;;5055263;28;20684;-68
2023/07/30 03:06:41;;;;;;;0.90;0.90;;;18.40;99.90;;;;;;5054982;28;20233;-69
2023/07/30 03:09:07;;;;;;;1.47;1.37;;;18.40;99.90;;;;;;5055193;28;20193;-68
2023/07/30 03:11:32;;;;;;;2.70;1.03;;;18.30;99.90;;;;;;5054821;28;20586;-68
2023/07/30 03:13:58;;;;;;;0.77;0.60;;;18.30;99.90;;;;;;5055064;28;20402;-70
2023/07/30 03:16:24;;;;;;;0.50;0.50;;;18.30;99.90;;;;;;5054811;28;20182;-70
2023/07/30 03:18:50;;;;;;;0.60;0.60;;;18.30;99.90;;;;;;5054984;28;20432;-68
2023/07/30 03:21:15;;;;;;;1.87;1.77;;;18.30;99.90;;;;;;5054530;28;20170;-70
2023/07/30 03:23:44;;;;;;;1.33;1.00;;;18.30;99.90;;;;;;5054891;28;20236;-69
2023/07/30 03:26:10;;;;;;;0.40;0.40;;;18.30;99.90;;;;;;5054768;28;20195;-70
2023/07/30 03:28:36;;;;;;;0.50;0.50;;;18.10;99.90;;;;;;5052325;28;20415;-70
2023/07/30 03:31:02;;;;;;;0.50;0.50;;;18.10;99.90;;;;;;5054698;28;20411;-68
2023/07/30 03:33:29;;;;;;;0.90;0.90;;;;;;;;;;5052865;28;20442;-69
2023/07/30 03:35:54;;;;;;;0.40;0.40;;;18.30;99.90;;;;;;5053345;28;20178;-70
2023/07/30 03:38:20;;;;;;;0.90;0.90;;;18.30;99.90;;;;;;5054536;28;20893;-70
2023/07/30 03:40:45;;;;;;;0.73;0.73;;;18.30;99.90;;;;;;5054212;28;20203;-70
2023/07/30 03:43:11;;;;;;;1.07;1.00;;;18.30;99.90;;;;;;5054369;28;20222;-71
2023/07/30 03:45:37;;;;;;;0.50;0.40;;;18.20;99.90;;;;;;5054159;28;20663;-71
2023/07/30 03:48:02;;;;;;;0.63;0.63;;;18.30;99.90;;;;;;5054675;28;20171;-70
2023/07/30 03:50:28;;;;;;;0.67;0.67;;;18.30;99.90;;;;;;5054129;28;20237;-70
2023/07/30 03:52:53;;;;;;;0.60;0.57;;;18.30;99.90;;;;;;5054135;28;20167;-70
2023/07/30 03:55:19;;;;;;;0.90;0.60;;;18.30;99.90;;;;;;5054347;28;20181;-71
2023/07/30 03:57:45;;;;;;;1.00;0.90;;;18.40;99.90;;;;;;5054138;28;20166;-71
2023/07/30 04:00:11;;;;;;;0.60;0.60;;;18.30;99.90;;;;;;5054029;28;20227;-70
2023/07/30 04:02:37;;;;;;;0.53;0.53;;;18.30;99.90;;;;;;5053896;28;20170;-70
2023/07/30 04:05:02;;;;;;;2.00;0.60;;;18.30;99.90;;;;;;5053946;28;20412;-70
2023/07/30 04:07:28;;;;;;;0.50;0.50;;;18.30;99.90;;;;;;5054118;28;20581;-70
2023/07/30 04:09:54;;;;;;;0.60;0.60;;;18.30;99.90;;;;;;5054036;28;20734;-69
2023/07/30 04:12:21;;;;;;;0.40;0.40;;;18.40;99.90;;;;;;5053658;28;20182;-69
2023/07/30 04:14:47;;;;;;;1.17;0.90;;;18.40;99.90;;;;;;5053978;28;20174;-70
2023/07/30 04:17:12;;;;;;;0.50;0.50;;;18.30;99.90;;;;;;5053928;28;20401;-69
2023/07/30 04:19:38;;;;;;;0.60;0.60;;;18.40;99.90;;;;;;5053602;28;20281;-70
2023/07/30 04:22:03;;;;;;;0.83;0.80;;;18.30;99.90;;;;;;5053539;28;20261;-70
2023/07/30 04:24:29;;;;;;;1.00;0.90;;;18.20;99.90;;;;;;5053692;28;20541;-69
2023/07/30 04:26:55;;;;;;;0.40;0.40;;;18.20;99.90;;;;;;5053682;28;20294;-69
2023/07/30 04:29:20;;;;;;;0.90;0.73;;;18.20;99.90;;;;;;5052863;28;20271;-70
2023/07/30 04:31:46;;;;;;;1.23;0.93;;;18.30;99.90;;;;;;5052845;28;20170;-70
2023/07/30 04:34:11;;;;;;;0.87;0.87;;;18.30;99.90;;;;;;5053357;28;20183;-69
2023/07/30 04:36:37;;;;;;;0.93;0.93;;;18.30;99.90;;;;;;5053589;28;20185;-70
2023/07/30 04:39:03;;;;;;;0.90;0.90;;;18.30;99.90;;;;;;5053376;28;20751;-69
2023/07/30 04:41:28;;;;;;;0.60;0.60;;;18.40;99.90;;;;;;5053243;28;20549;-69
2023/07/30 04:43:54;;;;;;;0.90;0.90;;;18.20;99.90;;;;;;5053506;28;20185;-70
2023/07/30 04:46:19;;;;;;;0.83;0.83;;;18.20;99.90;;;;;;5053194;28;20204;-70
2023/07/30 04:48:45;;;;;;;0.70;0.70;;;18.30;99.90;;;;;;5053424;28;20175;-68
2023/07/30 04:51:11;;;;;;;1.43;1.43;;;18.00;99.90;;;;;;5052905;28;20270;-68
2023/07/30 04:53:36;;;;;;;0.40;0.40;;;18.10;99.90;;;;;;5053471;28;20628;-70
2023/07/30 04:56:02;;;;;;;0.43;0.43;;;18.00;99.90;;;;;;5053364;28;20228;-69
2023/07/30 04:58:28;;;;;;;0.70;0.57;;;18.10;99.90;;;;;;5053108;28;20680;-70
2023/07/30 05:00:53;;;;;;;0.50;0.50;;;18.10;99.90;;;;;;5052857;28;20195;-70
2023/07/30 05:03:19;;;;;;;1.07;1.07;;;18.20;99.90;;;;;;5053544;28;20531;-70
2023/07/30 05:05:44;;;;;;;1.30;1.20;;;18.10;99.90;;;;;;5052977;28;20202;-69
2023/07/30 05:08:10;;;;;;;0.50;0.50;;;18.00;99.90;;;;;;5053267;28;20166;-70
2023/07/30 05:10:36;;;;;;;0.50;0.50;;;18.10;99.90;;;;;;5053089;28;20265;-68
2023/07/30 05:13:02;;;;;;;0.50;0.50;;;18.20;99.90;;;;;;5052734;28;20181;-71
2023/07/30 05:15:28;;;;;;;0.57;0.57;;;18.00;99.90;;;;;;5053007;28;20401;-70
2023/07/30 05:17:53;;;;;;;0.50;0.50;;;17.90;99.90;;;;;;5053027;28;20898;-70
2023/07/30 05:20:19;;;;;;;0.87;0.60;;;18.00;99.90;;;;;;5052815;28;20701;-70
2023/07/30 05:22:45;;;;;;;0.63;0.63;;;18.10;99.90;;;;;;5052905;28;20249;-70
2023/07/30 05:25:10;;;;;;;0.40;0.40;;;18.10;99.90;;;;;;5052907;28;20189;-70
2023/07/30 05:27:36;;;;;;;0.57;0.57;;;18.10;99.90;;;;;;5052920;28;20183;-70
2023/07/30 05:30:02;;;;;;;0.77;0.77;;;18.20;99.90;;;;;;5052915;28;20201;-70
2023/07/30 05:32:28;;;;;;;0.60;0.60;;;18.30;99.90;;;;;;5052837;28;20176;-70
2023/07/30 05:34:53;;;;;;;1.07;1.07;;;18.20;99.90;;;;;;5052880;28;20403;-70
2023/07/30 05:37:19;;;;;;;0.57;0.57;;;18.30;99.90;;;;;;5053007;28;20180;-71
2023/07/30 05:39:45;;;;;;;0.50;0.50;;;18.30;99.90;;;;;;5052937;28;20662;-70
2023/07/30 05:42:10;;;;;;;0.50;0.50;;;18.30;99.90;;;;;;5056465;28;20320;-69
2023/07/30 05:44:36;;;;;;;0.40;0.40;;;18.30;99.90;;;;;;5057048;28;20175;-69
2023/07/30 05:47:02;;;;;;;1.00;0.50;;;18.20;99.90;;;;;;5056888;28;20218;-70
2023/07/30 05:49:27;;;;;;;3.43;1.00;;;18.30;99.90;;;;;;5056396;28;20216;-70
2023/07/30 05:51:53;;;;;;;0.47;0.47;;;18.40;99.90;;;;;;5056435;28;20167;-70
2023/07/30 05:54:18;;;;;;;2.20;1.40;;;18.40;99.90;;;;;;5056635;28;20661;-70
2023/07/30 05:56:44;;;;;;;1.17;1.07;;;18.40;99.90;;;;;;5056484;28;20184;-70
2023/07/30 05:59:10;;;;;;;1.23;1.13;;;18.50;99.90;;;;;;5056719;28;20199;-69
2023/07/30 06:01:35;;;;;;;0.40;0.40;;;18.50;99.90;;;;;;5056221;28;20177;-70
2023/07/30 06:04:01;;;;;;;0.40;0.40;;;18.60;99.90;;;;;;5056473;28;20184;-69
2023/07/30 06:06:27;;;;;;;0.70;0.70;;;18.60;99.90;;;;;;5056227;28;20265;-70
2023/07/30 06:08:56;;;;;;;0.60;0.57;;;18.60;99.90;;;;;;5056082;28;20656;-71
2023/07/30 06:11:22;;;;;;;0.70;0.70;;;18.50;99.90;;;;;;5056078;28;20416;-70
2023/07/30 06:13:47;;;;;;;0.50;0.50;;;18.50;99.90;;;;;;5056050;28;20890;-71
2023/07/30 06:16:14;;;;;;;0.57;0.57;;;18.50;99.90;;;;;;5056281;28;20503;-70
2023/07/30 06:18:40;;;;;;;6.87;1.00;;;18.40;99.90;;;;;;5056028;28;20606;-69
2023/07/30 06:21:06;;;;;;;0.83;0.83;;;18.30;99.90;;;;;;5055796;28;20413;-69
2023/07/30 06:23:31;;;;;;;1.30;1.20;;;18.30;99.90;;;;;;5056054;28;20187;-70
2023/07/30 06:25:57;;;;;;;1.90;0.70;;;18.30;99.90;;;;;;5055915;28;20199;-70
2023/07/30 06:28:23;;;;;;;2.57;2.00;;;18.20;99.90;;;;;;5055805;28;20173;-70
2023/07/30 06:30:49;;;;;;;0.30;0.30;;;18.10;99.90;;;;;;5055541;28;20374;-70
2023/07/30 06:33:15;;;;;;;0.50;0.50;;;18.20;99.90;;;;;;5055798;28;20498;-70
2023/07/30 06:35:40;;;;;;;0.73;0.73;;;18.30;99.90;;;;;;5055635;28;20191;-70
2023/07/30 06:38:08;;;;;;;0.60;0.60;;;18.30;99.90;;;;;;5055746;28;20170;-71
2023/07/30 06:40:33;;;;;;;0.70;0.70;;;18.40;99.90;;;;;;5055464;28;20559;-71
2023/07/30 06:42:59;;;;;;;0.57;0.57;;;18.50;99.90;;;;;;5055312;28;20406;-70
2023/07/30 06:45:25;;;;;;;0.90;0.70;;;18.40;99.90;;;;;;5055438;28;20648;-69
2023/07/30 06:47:50;;;;;;;0.40;0.40;;;18.30;99.90;;;;;;5055642;28;20688;-70
2023/07/30 06:50:16;;;;;;;0.40;0.40;;;18.10;99.90;;;;;;5055318;28;20212;-70
2023/07/30 06:52:42;;;;;;;0.30;0.30;;;18.00;99.90;;;;;;5054810;28;20183;-69
2023/07/30 06:55:08;;;;;;;0.83;0.83;;;18.00;99.90;;;;;;5055481;28;20228;-69
2023/07/30 06:57:33;;;;;;;0.50;0.50;;;18.00;99.90;;;;;;5055147;28;20202;-70
2023/07/30 07:00:00;;;;;;;0.93;0.93;;;18.10;99.90;;;;;;5055130;28;20467;-70
2023/07/30 07:02:26;;;;;;;0.40;0.40;;;18.30;99.90;;;;;;5055162;28;20275;-69
2023/07/30 07:04:51;;;;;;;0.70;0.70;;;18.40;99.90;;;;;;5053633;28;20496;-70
2023/07/30 07:07:17;;;;;;;1.13;1.03;;;18.70;99.90;;;;;;5054914;28;20200;-70
2023/07/30 07:09:43;;;;;;;0.80;0.70;;;18.90;99.90;;;;;;5054990;28;20225;-69
2023/07/30 07:12:08;;;;;;;1.70;0.90;;;19.00;99.90;;;;;;5054766;28;20185;-70
2023/07/30 07:14:34;;;;;;;0.70;0.70;;;19.00;99.90;;;;;;5055316;28;20205;-69
2023/07/30 07:16:59;;;;;;;0.57;0.57;;;18.90;99.90;;;;;;5054966;28;20177;-69
2023/07/30 07:19:25;;;;;;;1.00;1.00;;;18.70;99.90;;;;;;5054912;28;20269;-69
2023/07/30 07:21:51;;;;;;;0.40;0.40;;;18.70;99.90;;;;;;5054701;28;20653;-70
2023/07/30 07:24:16;;;;;;;0.50;0.50;;;18.70;99.90;;;;;;5055419;28;20182;-69
2023/07/30 07:26:42;;;;;;;0.50;0.50;;;18.70;99.90;;;;;;5054570;28;20291;-70
2023/07/30 07:29:09;;;;;;;1.17;1.03;;;18.70;99.90;;;;;;5054625;28;20197;-69
2023/07/30 07:31:35;;;;;;;0.57;0.57;;;18.80;99.90;;;;;;5054490;28;20183;-70
2023/07/30 07:34:00;;;;;;;0.40;0.40;;;19.00;99.90;;;;;;5054677;28;20405;-69
2023/07/30 07:36:26;;;;;;;1.03;1.03;;;19.30;99.90;;;;;;5054634;28;20170;-69
2023/07/30 07:38:51;;;;;;;0.67;0.67;;;19.50;99.90;;;;;;5054369;28;20197;-69
2023/07/30 07:41:17;;;;;;;0.70;0.70;;;19.80;99.90;;;;;;5054475;28;20256;-71
2023/07/30 07:43:44;;;;;;;0.77;0.77;;;20.30;99.90;;;;;;5054211;28;20561;-69
2023/07/30 07:46:13;;;;;;;0.80;0.50;;;20.40;99.90;;;;;;5054313;28;20289;-70
2023/07/30 07:48:43;;;;;;;0.67;0.67;;;20.20;99.90;;;;;;5054401;28;20404;-71
2023/07/30 07:51:10;;;;;;;1.50;0.70;;;20.00;99.90;;;;;;5053887;28;20431;-71
2023/07/30 07:53:36;;;;;;;0.40;0.40;;;19.90;99.90;;;;;;5054366;28;20932;-70
2023/07/30 07:56:02;;;;;;;0.80;0.70;;;19.90;99.90;;;;;;5054005;28;20413;-70
2023/07/30 07:58:28;;;;;;;0.60;0.60;;;19.90;99.90;;;;;;5054220;28;20822;-70
2023/07/30 08:00:55;;;;;;;1.70;1.23;;;20.00;99.90;;;;;;5054058;28;20225;-69
2023/07/30 08:03:22;;;;;;;0.80;0.60;;;20.00;99.90;;;;;;5053335;28;20407;-71
2023/07/30 08:05:48;;;;;;;0.40;0.40;;;20.00;99.90;;;;;;5053829;28;20464;-70
2023/07/30 08:08:14;;;;;;;0.63;0.60;;;20.00;99.90;;;;;;5053927;28;20405;-69
2023/07/30 08:10:43;;;;;;;0.73;0.73;;;20.30;99.90;;;;;;5053639;28;20476;-70
2023/07/30 08:13:12;;;;;;;5.90;0.87;;;21.10;99.90;;;;;;5054015;28;20171;-71
2023/07/30 08:15:38;;;;;;;0.47;0.47;;;21.70;99.40;;;;;;5054057;28;20504;-69
2023/07/30 08:18:03;;;;;;;1.50;0.77;;;22.60;97.50;;;;;;5053908;28;20483;-69
2023/07/30 08:20:29;;;;;;;0.43;0.43;;;24.10;97.40;;;;;;5053560;28;20190;-70
2023/07/30 08:22:55;;;;;;;0.40;0.40;;;25.50;93.60;;;;;;5053501;28;20189;-70
2023/07/30 08:25:20;;;;;;;0.67;0.67;;;25.70;92.40;;;;;;5053848;28;20181;-71
2023/07/30 08:27:46;;;;;;;2.40;1.23;;;25.50;92.70;;;;;;5053592;28;20235;-71
2023/07/30 08:30:12;;;;;;;0.60;0.50;;;25.00;91.60;;;;;;5053505;28;20669;-71
2023/07/30 08:32:38;;;;;;;1.20;1.00;;;24.50;93.30;;;;;;5053608;28;20564;-71
2023/07/30 08:35:04;;;;;;;0.60;0.53;;;24.20;92.00;;;;;;5053494;28;20427;-71
2023/07/30 08:37:30;;;;;;;0.60;0.60;;;24.30;93.70;;;;;;5053450;28;20575;-71
2023/07/30 08:39:56;;;;;;;0.70;0.70;;;25.50;92.50;;;;;;5053380;28;20432;-69
2023/07/30 08:42:22;;;;;;;0.57;0.57;;;26.60;87.00;;;;;;5053381;28;20888;-71
2023/07/30 08:44:48;;;;;;;0.40;0.40;;;27.30;85.50;;;;;;5053443;28;20166;-71
2023/07/30 08:47:14;;;;;;;0.50;0.50;;;28.00;83.40;;;;;;5053261;28;20475;-71
2023/07/30 08:49:40;;;;;;;0.60;0.50;;;28.20;83.30;;;;;;5053272;28;20209;-70
2023/07/30 08:52:08;;;;;;;0.57;0.50;;;26.40;83.50;;;;;;5053243;28;20742;-69
2023/07/30 08:54:35;;;;;;;1.00;0.70;;;25.50;89.00;;;;;;5053291;28;20169;-70
2023/07/30 08:57:02;;;;;;;0.53;0.53;;;24.90;90.20;;;;;;5053389;28;20406;-70
2023/07/30 08:59:33;;;;;;;1.03;0.97;;;24.20;90.90;;;;;;5053043;28;20490;-70
2023/07/30 09:02:00;;;;;;;0.90;0.87;;;23.80;92.50;;;;;;5053064;28;20447;-70
2023/07/30 09:04:26;;;;;;;1.23;0.83;;;23.80;92.00;;;;;;5053087;28;20501;-70
2023/07/30 09:06:51;;;;;;;0.63;0.63;;;23.70;90.30;;;;;;5052977;28;20431;-71
2023/07/30 09:09:17;;;;;;;0.87;0.53;;;23.50;91.70;;;;;;5053238;28;20204;-70
2023/07/30 09:11:42;;;;;;;0.50;0.50;;;23.10;92.10;;;;;;5052842;28;20231;-71
2023/07/30 09:14:09;;;;;;;1.17;0.70;;;22.80;91.70;;;;;;5053911;28;20173;-71
2023/07/30 09:16:35;;;;;;;0.80;0.50;;;22.40;92.20;;;;;;5057095;28;20181;-71
2023/07/30 09:19:00;;;;;;;0.70;0.57;;;22.20;92.10;;;;;;5057068;28;20952;-71
2023/07/30 09:21:30;;;;;;;0.60;0.60;;;21.90;92.30;;;;;;5056887;28;20662;-70
2023/07/30 09:23:57;;;;;;;0.50;0.40;;;21.60;93.50;;;;;;5057271;28;20180;-70
2023/07/30 09:26:22;;;;;;;0.60;0.60;;;21.30;93.80;;;;;;5056994;28;21021;-71
2023/07/30 09:28:48;;;;;;;0.50;0.50;;;21.20;99.90;;;;;;5056845;28;20408;-70
2023/07/30 09:31:13;;;;;;;0.70;0.60;;;21.30;95.40;;;;;;5056622;28;20226;-71
2023/07/30 09:33:42;;;;;;;0.80;0.80;;;21.40;93.70;;;;;;5057230;28;20618;-71
2023/07/30 09:36:09;;;;;;;1.20;0.80;;;21.70;93.60;;;;;;5056826;28;20174;-71
2023/07/30 09:38:42;;;;;;;0.43;0.43;;;22.90;99.90;;;;;;5056669;28;20500;-70
2023/07/30 09:41:09;;;;;;;1.10;1.00;;;22.80;92.60;;;;;;5056638;28;20412;-71
2023/07/30 09:43:35;;;;;;;1.30;1.20;;;23.60;92.00;;;;;;5056838;28;20383;-70
2023/07/30 09:46:06;;;;;;;0.70;0.63;;;24.10;88.60;;;;;;5056893;28;20484;-71
2023/07/30 09:48:33;;;;;;;1.17;1.10;;;24.30;89.70;;;;;;5056633;28;20404;-70
2023/07/30 09:51:05;;;;;;;0.67;0.67;;;25.00;90.20;;;;;;5056783;28;20459;-71
2023/07/30 09:53:35;;;;;;;0.47;0.47;;;26.00;86.50;;;;;;5056759;28;20379;-70
2023/07/30 09:56:02;;;;;;;0.80;0.53;;;26.80;80.90;;;;;;5056530;28;20855;-71
2023/07/30 09:58:29;;;;;;;0.63;0.57;;;27.20;79.40;;;;;;5056392;28;20420;-71
2023/07/30 10:00:57;;;;;;;1.00;0.70;;;27.50;76.70;;;;;;5056040;28;20539;-70
2023/07/30 10:03:23;;;;;;;1.03;0.50;;;28.10;77.10;;;;;;5056472;28;20408;-71
2023/07/30 10:05:50;;;;;;;0.50;0.50;;;28.50;70.90;;;;;;5056284;28;20990;-71
2023/07/30 10:08:24;;;;;;;0.90;0.60;;;28.70;66.90;;;;;;5056319;28;20227;-70
2023/07/30 10:10:51;;;;;;;0.57;0.50;;;28.50;67.00;;;;;;5055839;28;20476;-71
2023/07/30 10:13:19;;;;;;;0.70;0.70;;;28.10;70.80;;;;;;5056083;28;20433;-70
2023/07/30 10:15:46;;;;;;;0.47;0.47;;;27.30;72.60;;;;;;5055972;28;20749;-70
2023/07/30 10:18:12;;;;;;;0.87;0.87;;;26.40;74.50;;;;;;5056093;28;20420;-71
2023/07/30 10:20:38;;;;;;;0.67;0.43;;;25.70;80.80;;;;;;5055840;28;20452;-70
2023/07/30 10:23:05;;;;;;;1.37;0.60;;;25.30;75.50;;;;;;5055989;28;20459;-70
2023/07/30 10:25:47;;;;;;;0.40;0.40;;;25.60;78.20;;;;;;5055320;28;20480;-71
2023/07/30 10:28:29;;;;;;;0.50;0.50;;;25.60;79.00;;;;;;5055849;28;20888;-69
2023/07/30 10:31:00;;;;;;;0.50;0.50;;;24.90;81.10;;;;;;5055545;28;20893;-70
2023/07/30 10:33:50;;;;;;;0.97;0.60;;;24.60;79.20;;;;;;5055933;28;20397;-71
2023/07/30 10:36:40;;;;;;;1.07;0.97;;;24.40;80.30;;;;;;5055827;28;20390;-71
2023/07/30 10:39:22;;;;;;;0.57;0.57;;;24.20;80.70;;;;;;5055670;28;20433;-70
2023/07/30 10:41:53;;;;;;;0.90;0.73;;;23.70;82.50;;;;;;5055552;28;20475;-71
2023/07/30 10:44:33;;;;;;;0.60;0.60;;;23.70;88.60;;;;;;5055445;28;20930;-69
2023/07/30 10:47:00;;;;;;;1.00;1.00;;;24.30;83.80;;;;;;5055752;28;20427;-71
2023/07/30 10:49:26;;;;;;;1.27;0.93;;;24.70;79.30;;;;;;5055462;28;20494;-71
2023/07/30 10:51:53;;;;;;;1.13;0.80;;;24.80;79.30;;;;;;5055337;28;20481;-71
2023/07/30 10:54:19;;;;;;;2.27;0.57;;;24.90;80.70;;;;;;5055514;28;20372;-71
2023/07/30 10:56:46;;;;;;;1.00;0.87;;;25.20;82.00;;;;;;5055215;28;20414;-70
2023/07/30 10:59:12;;;;;;;0.60;0.50;;;25.30;82.90;;;;;;5055203;28;20424;-71
2023/07/30 11:01:43;;;;;;;1.03;0.60;;;25.30;78.40;;;;;;5055308;28;20893;-71
2023/07/30 11:04:15;;;;;;;1.57;0.90;;;25.20;77.80;;;;;;5055255;28;20387;-70
2023/07/30 11:06:49;;;;;;;0.63;0.50;;;25.10;79.90;;;;;;5055149;28;20430;-71
2023/07/30 11:09:25;;;;;;;0.60;0.60;;;24.80;82.60;;;;;;5055242;28;20429;-70
2023/07/30 11:11:52;;;;;;;0.90;0.77;;;24.40;83.70;;;;;;5054906;28;20778;-69
2023/07/30 11:14:20;;;;;;;1.17;1.07;;;24.10;83.00;;;;;;5054951;28;20382;-70
2023/07/30 11:16:54;;;;;;;0.60;0.50;;;24.00;85.20;;;;;;5054927;28;20383;-70
2023/07/30 11:19:20;;;;;;;0.87;0.87;;;23.90;86.70;;;;;;5055019;28;20541;-70
2023/07/30 11:21:50;;;;;;;0.60;0.60;;;24.00;82.30;;;;;;5054627;28;20404;-71
2023/07/30 11:24:16;;;;;;;0.50;0.50;;;24.30;80.30;;;;;;5055058;28;20383;-71
2023/07/30 11:26:43;;;;;;;0.50;0.50;;;24.70;79.40;;;;;;5054839;28;20789;-71
2023/07/30 11:29:16;;;;;;;0.60;0.50;;;24.80;76.70;;;;;;5054688;28;20526;-71
2023/07/30 11:31:43;;;;;;;1.67;0.97;;;24.80;76.70;;;;;;5054612;28;20419;-70
2023/07/30 11:34:09;;;;;;;0.97;0.87;;;23.70;77.40;;;;;;5054515;28;20396;-70
2023/07/30 11:36:35;;;;;;;0.80;0.63;;;23.30;80.30;;;;;;5054620;28;20413;-71
2023/07/30 11:39:01;;;;;;;0.80;0.70;;;;;;;;;;5054398;28;20422;-70
2023/07/30 11:41:28;;;;;;;0.50;0.50;;;23.30;80.00;;;;;;5054289;28;20166;-70
2023/07/30 11:43:54;;;;;;;0.43;0.43;;;23.30;78.90;;;;;;5054402;28;20920;-71
2023/07/30 11:46:22;;;;;;;0.80;0.80;;;23.50;83.40;;;;;;5054573;28;20419;-71
2023/07/30 11:48:50;;;;;;;0.60;0.60;;;23.80;98.90;;;;;;5054416;28;20888;-71
2023/07/30 11:51:33;;;;;;;0.60;0.40;;;23.60;80.80;;;;;;5054124;28;20400;-71
2023/07/30 11:54:01;;;;;;;1.00;0.60;;;24.10;77.20;;;;;;5054487;28;20486;-72
2023/07/30 11:56:28;;;;;;;0.50;0.50;;;24.00;77.70;;;;;;5054361;28;20772;-71
2023/07/30 11:58:59;;;;;;;0.43;0.43;;;24.20;78.50;;;;;;5053983;28;20424;-70
2023/07/30 12:01:26;;;;;;;0.80;0.67;;;24.10;78.60;;;;;;5053922;28;20892;-70
2023/07/30 12:03:57;;;;;;;0.97;0.70;;;24.10;79.70;;;;;;5054211;28;20451;-71
2023/07/30 12:06:23;;;;;;;1.13;0.60;;;24.20;78.20;;;;;;5053909;28;20459;-71
2023/07/30 12:08:50;;;;;;;0.87;0.87;;;24.40;96.60;;;;;;5054145;28;20428;-71
2023/07/30 12:11:19;;;;;;;0.50;0.50;;;24.10;76.80;;;;;;5053778;28;20412;-70
2023/07/30 12:13:45;;;;;;;1.90;0.67;;;24.10;77.30;;;;;;5053926;28;20425;-69
2023/07/30 12:16:12;;;;;;;0.53;0.53;;;23.90;78.30;;;;;;5053978;28;20403;-70
2023/07/30 12:18:39;;;;;;;0.93;0.60;;;23.60;92.30;;;;;;5053915;28;20482;-69
2023/07/30 12:21:07;;;;;;;0.60;0.60;;;23.80;75.70;;;;;;5053548;28;20391;-70
2023/07/30 12:23:36;;;;;;;0.87;0.60;;;23.80;75.30;;;;;;5053678;28;20413;-70
2023/07/30 12:26:05;;;;;;;1.00;1.00;;;23.40;74.60;;;;;;5053622;28;20415;-71
2023/07/30 12:28:33;;;;;;;0.80;0.60;;;23.10;76.20;;;;;;5053653;28;20443;-70
2023/07/30 12:30:59;;;;;;;0.57;0.50;;;23.00;77.20;;;;;;5053353;28;20459;-70
2023/07/30 12:33:25;;;;;;;0.83;0.73;;;22.60;77.90;;;;;;5053627;28;20810;-70
2023/07/30 12:35:50;;;;;;;0.50;0.50;;;21.90;80.70;;;;;;5053594;28;20176;-69
2023/07/30 12:38:16;;;;;;;1.10;0.80;;;21.90;82.20;;;;;;5053383;28;20669;-70
2023/07/30 12:40:42;;;;;;;0.57;0.57;;;22.20;78.00;;;;;;5052989;28;20558;-71
2023/07/30 12:43:09;;;;;;;0.63;0.63;;;22.50;78.70;;;;;;5053497;28;20173;-70
2023/07/30 12:45:34;;;;;;;1.17;1.03;;;22.80;77.40;;;;;;5053317;28;20177;-70